Time,TemperatureF,DewpointF,PressureIn,WindDirection,WindDirectionDegrees,WindSpeedMPH,WindSpeedGustMPH,Humidity,HourlyPrecipIn,Conditions,Clouds,dailyrainin,SoftwareType,DateUTC
2013-09-07 00:03:00,65.8,52.4,29.94,WSW,247,1.7,-999.0,62,-99.99,,,0.00,Acu-Link.com,2013-09-07 04:03:00,
2013-09-07 00:18:00,64.6,51.3,29.93,West,270,1.7,-999.0,62,-99.99,,,0.00,Acu-Link.com,2013-09-07 04:18:00,
2013-09-07 00:33:00,64.0,50.7,29.94,West,270,3.7,-999.0,62,-99.99,,,0.00,Acu-Link.com,2013-09-07 04:33:00,
2013-09-07 00:49:00,64.0,48.9,29.93,West,270,7.8,-999.0,58,-99.99,,,0.00,Acu-Link.com,2013-09-07 04:49:00,
2013-09-07 01:04:00,63.5,48.5,29.94,North,0,4.7,-999.0,58,-99.99,,,0.00,Acu-Link.com,2013-09-07 05:04:00,
2013-09-07 01:19:00,63.1,48.5,29.94,SW,225,3.7,-999.0,59,-99.99,,,0.00,Acu-Link.com,2013-09-07 05:19:00,
2013-09-07 01:35:00,62.8,48.7,29.94,West,270,5.8,-999.0,60,-99.99,,,0.00,Acu-Link.com,2013-09-07 05:35:00,
2013-09-07 01:50:00,62.6,48.5,29.94,WNW,292,1.7,-999.0,60,-99.99,,,0.00,Acu-Link.com,2013-09-07 05:50:00,
2013-09-07 02:05:00,62.4,49.2,29.94,WSW,247,4.7,-999.0,62,-99.99,,,0.00,Acu-Link.com,2013-09-07 06:05:00,
2013-09-07 02:20:00,62.1,48.9,29.94,WSW,247,4.7,-999.0,62,-99.99,,,0.00,Acu-Link.com,2013-09-07 06:20:00,
2013-09-07 02:35:00,61.7,49.4,29.94,West,270,5.8,-999.0,64,-99.99,,,0.00,Acu-Link.com,2013-09-07 06:35:00,
2013-09-07 02:50:00,61.5,49.2,29.94,WNW,292,3.7,-999.0,64,-99.99,,,0.00,Acu-Link.com,2013-09-07 06:50:00,
2013-09-07 03:05:00,61.3,49.0,29.93,West,270,3.7,-999.0,64,-99.99,,,0.00,Acu-Link.com,2013-09-07 07:05:00,
2013-09-07 03:21:00,61.2,49.3,29.94,West,270,4.2,-999.0,65,-99.99,,,0.00,Acu-Link.com,2013-09-07 07:21:00,
2013-09-07 03:36:00,61.0,50.0,29.93,WNW,292,2.2,-999.0,67,-99.99,,,0.00,Acu-Link.com,2013-09-07 07:36:00,
2013-09-07 03:51:00,61.0,50.0,29.93,West,270,3.7,-999.0,67,-99.99,,,0.00,Acu-Link.com,2013-09-07 07:51:00,
2013-09-07 04:07:00,61.2,50.2,29.93,West,270,3.7,-999.0,67,-99.99,,,0.00,Acu-Link.com,2013-09-07 08:07:00,
2013-09-07 04:22:00,61.2,50.6,29.93,West,270,5.3,-999.0,68,-99.99,,,0.00,Acu-Link.com,2013-09-07 08:22:00,
2013-09-07 04:37:00,60.8,50.2,29.93,NW,315,4.7,-999.0,68,-99.99,,,0.00,Acu-Link.com,2013-09-07 08:37:00,
2013-09-07 04:52:00,60.6,50.8,29.93,North,0,4.2,-999.0,70,-99.99,,,0.00,Acu-Link.com,2013-09-07 08:52:00,
2013-09-07 05:07:00,60.6,50.8,29.93,West,270,5.3,-999.0,70,-99.99,,,0.00,Acu-Link.com,2013-09-07 09:07:00,
2013-09-07 05:23:00,60.4,51.0,29.92,West,270,3.7,-999.0,71,-99.99,,,0.00,Acu-Link.com,2013-09-07 09:23:00,
2013-09-07 05:38:00,60.3,51.2,29.92,NNE,22,0.0,-999.0,72,-99.99,,,0.00,Acu-Link.com,2013-09-07 09:38:00,
2013-09-07 05:53:00,60.3,51.2,29.92,West,270,2.7,-999.0,72,-99.99,,,0.00,Acu-Link.com,2013-09-07 09:53:00,
2013-09-07 06:08:00,60.3,52.0,29.92,West,270,3.7,-999.0,74,-99.99,,,0.00,Acu-Link.com,2013-09-07 10:08:00,
2013-09-07 06:23:00,59.9,51.2,29.92,North,0,4.7,-999.0,73,-99.99,,,0.00,Acu-Link.com,2013-09-07 10:23:00,
2013-09-07 06:39:00,59.7,51.4,29.92,WNW,292,3.2,-999.0,74,-99.99,,,0.00,Acu-Link.com,2013-09-07 10:39:00,
2013-09-07 06:54:00,59.9,52.0,29.91,West,270,4.7,-999.0,75,-99.99,,,0.00,Acu-Link.com,2013-09-07 10:54:00,
2013-09-07 07:09:00,59.9,52.0,29.92,WSW,247,3.7,-999.0,75,-99.99,,,0.00,Acu-Link.com,2013-09-07 11:09:00,
2013-09-07 07:24:00,60.1,52.1,29.92,West,270,2.7,-999.0,75,-99.99,,,0.00,Acu-Link.com,2013-09-07 11:24:00,
2013-09-07 07:40:00,60.3,52.3,29.91,WSW,247,3.7,-999.0,75,-99.99,,,0.00,Acu-Link.com,2013-09-07 11:40:00,
2013-09-07 07:55:00,60.8,51.7,29.91,NW,315,2.2,-999.0,72,-99.99,,,0.00,Acu-Link.com,2013-09-07 11:55:00,
2013-09-07 08:10:00,60.8,51.7,29.91,West,270,4.2,-999.0,72,-99.99,,,0.00,Acu-Link.com,2013-09-07 12:10:00,
2013-09-07 08:26:00,61.5,52.0,29.91,WSW,247,4.2,-999.0,71,-99.99,,,0.00,Acu-Link.com,2013-09-07 12:26:00,
2013-09-07 08:41:00,62.1,51.4,29.91,WSW,247,4.7,-999.0,68,-99.99,,,0.00,Acu-Link.com,2013-09-07 12:41:00,
2013-09-07 08:56:00,63.3,51.3,29.91,West,270,4.7,-999.0,65,-99.99,,,0.00,Acu-Link.com,2013-09-07 12:56:00,
2013-09-07 09:11:00,64.2,50.9,29.91,North,0,2.7,-999.0,62,-99.99,,,0.00,Acu-Link.com,2013-09-07 13:11:00,
2013-09-07 09:27:00,64.8,51.0,29.91,West,270,2.2,-999.0,61,-99.99,,,0.00,Acu-Link.com,2013-09-07 13:27:00,
2013-09-07 09:42:00,67.3,50.6,29.91,WSW,247,2.7,-999.0,55,-99.99,,,0.00,Acu-Link.com,2013-09-07 13:42:00,
2013-09-07 09:57:00,67.3,50.1,29.92,West,270,5.8,-999.0,54,-99.99,,,0.00,Acu-Link.com,2013-09-07 13:57:00,
2013-09-07 10:13:00,68.4,50.6,29.92,West,270,4.7,-999.0,53,-99.99,,,0.00,Acu-Link.com,2013-09-07 14:13:00,
2013-09-07 10:28:00,69.3,50.4,29.91,West,270,6.3,-999.0,51,-99.99,,,0.00,Acu-Link.com,2013-09-07 14:28:00,
2013-09-07 10:43:00,70.9,50.8,29.91,West,270,6.3,-999.0,49,-99.99,,,0.00,Acu-Link.com,2013-09-07 14:43:00,
2013-09-07 10:58:00,71.1,49.8,29.90,West,270,4.2,-999.0,47,-99.99,,,0.00,Acu-Link.com,2013-09-07 14:58:00,
2013-09-07 11:13:00,72.3,48.5,29.90,West,270,5.3,-999.0,43,-99.99,,,0.00,Acu-Link.com,2013-09-07 15:13:00,
2013-09-07 11:28:00,73.2,48.7,29.90,West,270,4.7,-999.0,42,-99.99,,,0.00,Acu-Link.com,2013-09-07 15:28:00,
2013-09-07 11:44:00,74.3,48.4,29.89,WNW,292,2.2,-999.0,40,-99.99,,,0.00,Acu-Link.com,2013-09-07 15:44:00,
2013-09-07 11:59:00,73.9,47.4,29.88,WNW,292,2.7,-999.0,39,-99.99,,,0.00,Acu-Link.com,2013-09-07 15:59:00,
2013-09-07 12:14:00,74.7,47.4,29.87,West,270,7.3,-999.0,38,-99.99,,,0.00,Acu-Link.com,2013-09-07 16:14:00,
2013-09-07 12:29:00,75.9,49.1,29.87,West,270,5.3,-999.0,39,-99.99,,,0.00,Acu-Link.com,2013-09-07 16:29:00,
2013-09-07 12:44:00,75.6,48.9,29.85,West,270,3.2,-999.0,39,-99.99,,,0.00,Acu-Link.com,2013-09-07 16:44:00,
2013-09-07 12:59:00,76.8,49.9,29.84,West,270,4.2,-999.0,39,-99.99,,,0.00,Acu-Link.com,2013-09-07 16:59:00,
2013-09-07 13:15:00,77.7,50.1,29.83,WSW,247,4.2,-999.0,38,-99.99,,,0.00,Acu-Link.com,2013-09-07 17:15:00,
2013-09-07 13:30:00,78.1,50.4,29.82,West,270,5.3,-999.0,38,-99.99,,,0.00,Acu-Link.com,2013-09-07 17:30:00,
2013-09-07 13:45:00,77.9,50.2,29.82,West,270,5.3,-999.0,38,-99.99,,,0.00,Acu-Link.com,2013-09-07 17:45:00,
2013-09-07 14:00:00,79.0,50.5,29.82,West,270,5.3,-999.0,37,-99.99,,,0.00,Acu-Link.com,2013-09-07 18:00:00,
2013-09-07 14:15:00,79.2,50.7,29.80,West,270,2.7,-999.0,37,-99.99,,,0.00,Acu-Link.com,2013-09-07 18:15:00,
2013-09-07 14:30:00,80.2,51.5,29.79,West,270,5.8,-999.0,37,-99.99,,,0.00,Acu-Link.com,2013-09-07 18:30:00,
2013-09-07 14:45:00,80.6,51.9,29.78,NNE,22,5.8,-999.0,37,-99.99,,,0.00,Acu-Link.com,2013-09-07 18:45:00,
2013-09-07 15:00:00,79.9,52.0,29.78,West,270,4.2,-999.0,38,-99.99,,,0.00,Acu-Link.com,2013-09-07 19:00:00,
2013-09-07 15:15:00,79.9,51.3,29.78,East,90,2.2,-999.0,37,-99.99,,,0.00,Acu-Link.com,2013-09-07 19:15:00,
2013-09-07 15:31:00,78.4,52.7,29.78,West,270,4.7,-999.0,41,-99.99,,,0.00,Acu-Link.com,2013-09-07 19:31:00,
2013-09-07 15:46:00,80.8,51.3,29.78,West,270,4.2,-999.0,36,-99.99,,,0.00,Acu-Link.com,2013-09-07 19:46:00,
2013-09-07 16:01:00,80.4,51.7,29.78,WNW,292,1.1,-999.0,37,-99.99,,,0.00,Acu-Link.com,2013-09-07 20:01:00,
2013-09-07 16:16:00,80.8,51.3,29.77,WNW,292,3.2,-999.0,36,-99.99,,,0.00,Acu-Link.com,2013-09-07 20:16:00,
2013-09-07 16:31:00,79.7,51.1,29.76,West,270,2.7,-999.0,37,-99.99,,,0.00,Acu-Link.com,2013-09-07 20:31:00,
2013-09-07 16:47:00,79.5,50.2,29.76,West,270,5.3,-999.0,36,-99.99,,,0.00,Acu-Link.com,2013-09-07 20:47:00,
2013-09-07 17:02:00,80.6,54.0,29.76,West,270,2.7,-999.0,40,-99.99,,,0.00,Acu-Link.com,2013-09-07 21:02:00,
2013-09-07 17:17:00,79.9,54.7,29.76,West,270,4.2,-999.0,42,-99.99,,,0.00,Acu-Link.com,2013-09-07 21:17:00,
2013-09-07 17:33:00,78.4,58.2,29.76,West,270,4.7,-999.0,50,-99.99,,,0.00,Acu-Link.com,2013-09-07 21:33:00,
2013-09-07 17:48:00,77.5,56.8,29.76,West,270,5.8,-999.0,49,-99.99,,,0.00,Acu-Link.com,2013-09-07 21:48:00,
2013-09-07 18:03:00,76.8,56.2,29.75,West,270,3.2,-999.0,49,-99.99,,,0.00,Acu-Link.com,2013-09-07 22:03:00,
2013-09-07 18:18:00,75.7,57.3,29.75,West,270,4.2,-999.0,53,-99.99,,,0.00,Acu-Link.com,2013-09-07 22:18:00,
2013-09-07 18:34:00,75.0,57.2,29.75,South,180,2.2,-999.0,54,-99.99,,,0.00,Acu-Link.com,2013-09-07 22:34:00,
2013-09-07 18:49:00,74.8,57.5,29.74,WSW,247,4.2,-999.0,55,-99.99,,,0.00,Acu-Link.com,2013-09-07 22:49:00,
2013-09-07 19:04:00,74.5,58.7,29.75,West,270,5.3,-999.0,58,-99.99,,,0.00,Acu-Link.com,2013-09-07 23:04:00,
2013-09-07 19:20:00,74.1,58.8,29.74,WSW,247,2.2,-999.0,59,-99.99,,,0.00,Acu-Link.com,2013-09-07 23:20:00,
2013-09-07 19:35:00,73.8,59.0,29.75,West,270,3.7,-999.0,60,-99.99,,,0.00,Acu-Link.com,2013-09-07 23:35:00,
2013-09-07 19:50:00,73.8,58.6,29.75,ENE,67,0.0,-999.0,59,-99.99,,,0.00,Acu-Link.com,2013-09-07 23:50:00,
2013-09-07 20:05:00,73.6,59.3,29.74,West,270,5.3,-999.0,61,-99.99,,,0.00,Acu-Link.com,2013-09-08 00:05:00,
2013-09-07 20:21:00,73.2,59.4,29.75,West,270,3.7,-999.0,62,-99.99,,,0.00,Acu-Link.com,2013-09-08 00:21:00,
2013-09-07 20:36:00,73.4,60.5,29.75,ENE,67,1.1,-999.0,64,-99.99,,,0.00,Acu-Link.com,2013-09-08 00:36:00,
2013-09-07 20:51:00,73.4,59.6,29.74,West,270,2.7,-999.0,62,-99.99,,,0.00,Acu-Link.com,2013-09-08 00:51:00,
2013-09-07 21:06:00,73.6,59.3,29.74,West,270,2.7,-999.0,61,-99.99,,,0.00,Acu-Link.com,2013-09-08 01:06:00,
2013-09-07 21:22:00,73.6,57.4,29.74,West,270,3.7,-999.0,57,-99.99,,,0.00,Acu-Link.com,2013-09-08 01:22:00,
2013-09-07 21:37:00,73.8,56.1,29.74,West,270,4.2,-999.0,54,-99.99,,,0.00,Acu-Link.com,2013-09-08 01:37:00,
2013-09-07 21:52:00,73.8,55.6,29.74,West,270,3.2,-999.0,53,-99.99,,,0.00,Acu-Link.com,2013-09-08 01:52:00,
2013-09-07 22:07:00,74.1,55.3,29.74,West,270,3.7,-999.0,52,-99.99,,,0.00,Acu-Link.com,2013-09-08 02:07:00,
2013-09-07 22:23:00,73.6,60.7,29.73,West,270,4.2,-999.0,64,-99.99,,,0.00,Acu-Link.com,2013-09-08 02:23:00,
2013-09-07 22:38:00,72.7,61.1,29.73,West,270,4.2,-999.0,67,-99.99,,,0.00,Acu-Link.com,2013-09-08 02:38:00,
2013-09-07 22:53:00,72.3,60.3,29.73,North,0,2.2,-999.0,66,-99.99,,,0.00,Acu-Link.com,2013-09-08 02:53:00,
2013-09-07 23:08:00,71.6,61.7,29.73,West,270,4.2,-999.0,71,-99.99,,,0.00,Acu-Link.com,2013-09-08 03:08:00,
2013-09-07 23:23:00,71.8,61.1,29.72,West,270,4.2,-999.0,69,-99.99,,,0.00,Acu-Link.com,2013-09-08 03:23:00,
2013-09-07 23:39:00,71.8,60.2,29.71,West,270,5.3,-999.0,67,-99.99,,,0.00,Acu-Link.com,2013-09-08 03:39:00,
2013-09-07 23:54:00,71.8,60.7,29.72,West,270,5.3,-999.0,68,-99.99,,,0.00,Acu-Link.com,2013-09-08 03:54:00,